createdAt,value
2018-12-16T13:55:19.604Z,12.37
2018-12-16T13:57:47.539Z,16.90
2018-12-16T14:00:15.293Z,15.70
2018-12-16T14:02:42.905Z,14.90
2018-12-16T14:05:10.535Z,13.57
2018-12-16T14:07:38.181Z,12.00
2018-12-16T14:10:06.743Z,13.07
2018-12-16T14:12:34.312Z,14.33
2018-12-16T14:15:01.938Z,14.00
2018-12-16T14:17:29.520Z,16.12
2018-12-16T14:20:01.560Z,17.00
2018-12-16T14:22:41.754Z,13.37
2018-12-16T14:25:09.355Z,15.97
2018-12-16T14:27:36.967Z,15.47
2018-12-16T14:30:07.193Z,18.57
2018-12-16T14:32:34.735Z,13.53
2018-12-16T14:35:02.342Z,19.03
2018-12-16T14:37:30.330Z,16.70
2018-12-16T14:39:57.959Z,14.63
2018-12-16T14:42:25.537Z,14.47
2018-12-16T14:44:53.212Z,14.40
2018-12-16T14:47:20.822Z,18.97
2018-12-16T14:49:48.497Z,22.27
2018-12-16T14:52:16.128Z,15.73
2018-12-16T14:54:43.683Z,21.33
2018-12-16T14:57:11.373Z,17.93
2018-12-16T14:59:38.930Z,16.23
2018-12-16T15:02:06.590Z,19.57
2018-12-16T15:04:34.150Z,15.90
2018-12-16T15:07:01.814Z,17.13
2018-12-16T15:09:29.474Z,19.03
2018-12-16T15:11:57.047Z,19.60
2018-12-16T15:14:24.665Z,20.37
2018-12-16T15:16:52.259Z,17.73
2018-12-16T15:19:19.858Z,19.47
2018-12-16T15:21:47.476Z,18.00
2018-12-16T15:24:15.124Z,19.20
2018-12-16T15:26:42.722Z,18.70
2018-12-16T15:29:10.281Z,20.77
2018-12-16T15:31:37.980Z,18.77
2018-12-16T15:34:05.622Z,16.20
2018-12-16T15:36:33.246Z,16.43
2018-12-16T15:39:00.818Z,17.60
2018-12-16T15:41:28.403Z,19.33
2018-12-16T15:43:55.951Z,17.10
2018-12-16T15:46:23.654Z,25.20
2018-12-16T15:48:51.250Z,18.67
2018-12-16T15:51:18.918Z,18.70
2018-12-16T15:53:46.518Z,27.13
2018-12-16T15:56:14.200Z,20.57
2018-12-16T15:58:41.799Z,17.40
2018-12-16T16:01:09.409Z,18.97
2018-12-16T16:03:37.047Z,22.57
2018-12-16T16:06:04.690Z,19.73
2018-12-16T16:08:32.346Z,27.80
2018-12-16T16:10:59.903Z,20.23
2018-12-16T16:13:27.580Z,19.90
2018-12-16T16:15:55.135Z,19.13
2018-12-16T16:18:22.728Z,21.73
2018-12-16T16:20:50.468Z,19.80
2018-12-16T16:23:18.134Z,19.33
2018-12-16T16:25:45.841Z,18.97
2018-12-16T16:28:13.459Z,19.27
2018-12-16T16:30:41.021Z,17.27
2018-12-16T16:33:08.652Z,17.43
2018-12-16T16:35:36.213Z,21.77
2018-12-16T16:38:04.161Z,17.97
2018-12-16T16:40:31.768Z,20.87
2018-12-16T16:42:59.340Z,21.30
2018-12-16T16:45:26.898Z,18.90
2018-12-16T16:47:54.496Z,20.00
2018-12-16T16:50:22.107Z,21.77
2018-12-16T16:52:49.776Z,19.47
2018-12-16T16:55:17.443Z,16.23
2018-12-16T16:57:45.094Z,22.03
2018-12-16T17:00:13.101Z,18.93
2018-12-16T17:02:40.729Z,21.33
2018-12-16T17:05:08.394Z,23.40
2018-12-16T17:07:35.968Z,23.27
2018-12-16T17:10:05.099Z,19.17
2018-12-16T17:12:32.731Z,23.17
2018-12-16T17:15:00.285Z,22.00
2018-12-16T17:17:27.935Z,18.53
2018-12-16T17:19:55.506Z,18.90
2018-12-16T17:22:23.157Z,23.57
2018-12-16T17:24:50.818Z,20.73
2018-12-16T17:27:18.377Z,24.40
2018-12-16T17:29:45.947Z,19.30
2018-12-16T17:32:13.598Z,18.57
2018-12-16T17:34:41.171Z,20.90
2018-12-16T17:37:08.823Z,18.00
2018-12-16T17:39:36.499Z,17.50
2018-12-16T17:42:04.105Z,20.77
2018-12-16T17:44:31.762Z,19.13
2018-12-16T17:46:59.314Z,23.40
2018-12-16T17:49:27.192Z,18.13
2018-12-16T17:51:54.739Z,20.33
2018-12-16T17:54:22.374Z,18.93
2018-12-16T17:56:49.917Z,17.57
2018-12-16T17:59:18.025Z,16.57
2018-12-16T18:01:46.216Z,19.47
2018-12-16T18:04:13.790Z,17.57
2018-12-16T18:06:41.349Z,19.90
2018-12-16T18:09:09.080Z,20.73
2018-12-16T18:11:36.866Z,20.97
2018-12-16T18:14:04.487Z,18.63
2018-12-16T18:16:32.148Z,19.63
2018-12-16T18:18:59.714Z,16.50
2018-12-16T18:21:27.363Z,18.13
2018-12-16T18:23:54.990Z,20.03
2018-12-16T18:26:22.548Z,21.47
2018-12-16T18:28:50.149Z,22.30
2018-12-16T18:31:17.833Z,18.90
2018-12-16T18:33:45.424Z,19.77
2018-12-16T18:36:13.034Z,19.93
2018-12-16T18:38:40.690Z,22.20
2018-12-16T18:41:08.357Z,19.90
2018-12-16T18:43:35.969Z,17.13
2018-12-16T18:46:03.733Z,19.53
2018-12-16T18:48:31.350Z,19.13
2018-12-16T18:50:59.008Z,18.47
2018-12-16T18:53:26.675Z,18.07
2018-12-16T18:55:54.330Z,18.87
2018-12-16T18:58:21.884Z,22.60
2018-12-16T19:00:49.554Z,15.53
2018-12-16T19:03:17.102Z,19.70
2018-12-16T19:05:44.726Z,19.50
2018-12-16T19:08:12.346Z,22.27
2018-12-16T19:10:39.991Z,17.43
2018-12-16T19:13:07.576Z,17.03
2018-12-16T19:15:35.263Z,20.40
2018-12-16T19:18:02.936Z,26.73
2018-12-16T19:20:30.717Z,18.97
2018-12-16T19:22:58.467Z,18.93
2018-12-16T19:25:26.042Z,22.20
2018-12-16T19:27:53.597Z,21.93
2018-12-16T19:30:21.209Z,21.37
2018-12-16T19:32:48.793Z,22.22
2018-12-16T19:35:16.359Z,21.73
2018-12-16T19:37:43.997Z,22.07
2018-12-16T19:40:11.645Z,19.53
2018-12-16T19:42:39.310Z,22.10
2018-12-16T19:45:06.979Z,19.27
2018-12-16T19:47:34.616Z,24.20
2018-12-16T19:50:02.172Z,20.27
2018-12-16T19:52:29.763Z,20.13
2018-12-16T19:54:57.683Z,21.50
2018-12-16T19:57:25.274Z,22.90
2018-12-16T19:59:52.840Z,19.33
2018-12-16T20:02:20.425Z,20.73
2018-12-16T20:04:49.956Z,21.90
2018-12-16T20:07:17.564Z,19.87
2018-12-16T20:09:45.130Z,20.23
2018-12-16T20:12:12.722Z,21.33
2018-12-16T20:14:40.359Z,22.47
2018-12-16T20:17:07.948Z,19.77
2018-12-16T20:19:35.505Z,24.60
2018-12-16T20:22:03.154Z,23.27
2018-12-16T20:24:30.811Z,26.37
2018-12-16T20:26:58.386Z,19.33
2018-12-16T20:29:25.943Z,20.60
2018-12-16T20:31:53.536Z,22.03
2018-12-16T20:34:21.246Z,22.03
2018-12-16T20:36:48.808Z,25.70
2018-12-16T20:39:16.340Z,22.90
2018-12-16T20:41:43.910Z,24.93
2018-12-16T20:44:11.503Z,22.47
2018-12-16T20:46:39.092Z,26.57
2018-12-16T20:49:06.672Z,23.93
2018-12-16T20:51:34.235Z,23.73
2018-12-16T20:54:01.926Z,22.23
2018-12-16T20:56:29.516Z,24.27
2018-12-16T20:58:57.111Z,18.60
2018-12-16T21:01:24.687Z,21.83
2018-12-16T21:03:52.258Z,24.93
2018-12-16T21:06:19.825Z,24.20
2018-12-16T21:08:47.384Z,26.20
2018-12-16T21:11:20.571Z,23.07
2018-12-16T21:13:53.920Z,25.67
2018-12-16T21:16:27.156Z,23.47
2018-12-16T21:18:54.822Z,24.33
2018-12-16T21:21:22.460Z,25.57
2018-12-16T21:23:50.028Z,25.37
2018-12-16T21:26:17.557Z,28.47
2018-12-16T21:28:45.123Z,28.10
2018-12-16T21:31:12.657Z,29.57
2018-12-16T21:33:40.234Z,23.00
2018-12-16T21:36:07.802Z,25.30
2018-12-16T21:38:35.407Z,27.80
2018-12-16T21:41:03.080Z,24.60
2018-12-16T21:43:30.688Z,26.37
2018-12-16T21:45:58.244Z,28.00
2018-12-16T21:48:25.837Z,31.43
2018-12-16T21:50:53.379Z,34.67
2018-12-16T21:53:20.949Z,30.07
2018-12-16T21:55:48.500Z,27.83
2018-12-16T21:58:16.126Z,25.87
2018-12-16T22:00:43.685Z,28.83
2018-12-16T22:03:11.244Z,30.80
2018-12-16T22:05:38.807Z,28.40
2018-12-16T22:08:06.378Z,29.77
2018-12-16T22:10:33.919Z,29.97
2018-12-16T22:13:01.500Z,27.17
2018-12-16T22:15:29.061Z,30.00
2018-12-16T22:17:56.623Z,34.90
2018-12-16T22:20:24.227Z,31.23
2018-12-16T22:22:51.841Z,30.20
2018-12-16T22:25:19.403Z,29.23
2018-12-16T22:27:46.952Z,32.63
2018-12-16T22:30:14.544Z,22.43
2018-12-16T22:32:42.077Z,33.90
2018-12-16T22:35:09.676Z,29.87
2018-12-16T22:37:37.332Z,30.93
2018-12-16T22:40:05.507Z,29.13
2018-12-16T22:42:33.069Z,28.70
2018-12-16T22:45:00.662Z,29.63
2018-12-16T22:47:28.212Z,31.57
2018-12-16T22:49:55.952Z,31.07
2018-12-16T22:52:23.567Z,32.87
2018-12-16T22:54:51.320Z,31.30
2018-12-16T22:57:18.881Z,30.70
2018-12-16T22:59:46.492Z,30.13
2018-12-16T23:02:14.035Z,35.47
2018-12-16T23:04:41.592Z,32.27
2018-12-16T23:07:09.168Z,34.80
2018-12-16T23:09:36.737Z,35.10
2018-12-16T23:12:04.324Z,28.90
2018-12-16T23:14:31.907Z,32.13
2018-12-16T23:16:59.432Z,32.73
2018-12-16T23:19:26.990Z,32.90
2018-12-16T23:21:54.528Z,30.90
2018-12-16T23:24:23.315Z,33.53
2018-12-16T23:26:50.853Z,29.90
2018-12-16T23:29:19.363Z,31.80
2018-12-16T23:31:46.915Z,30.87
2018-12-16T23:34:14.539Z,34.73
2018-12-16T23:36:42.064Z,33.67
2018-12-16T23:39:09.964Z,31.87
2018-12-16T23:41:37.526Z,33.93
2018-12-16T23:44:05.071Z,33.73
2018-12-16T23:46:32.652Z,38.93
2018-12-16T23:49:00.243Z,35.90
2018-12-16T23:51:27.790Z,32.77
2018-12-16T23:53:55.363Z,33.33
2018-12-16T23:56:22.913Z,33.70
2018-12-16T23:58:50.476Z,35.83
